RYR63WY LOWW-LMML
Flight info
| Callsign | RYR63WY |
|---|---|
| Flight time | 1h 50m |
| Altitude | 35000 |
| Route | STEIN DCT NOHAT DCT NEKIN DCT OKLAX/N0445F370 DCT KATTI DCT AFCAM DCT KUTID DCT OBAXU DCT NELDA DCT DIRKA N982 GZO |
| Aircraft | A320/M-SDE3FGHIRWY/LB1 |
Departure
| Time | 2026-04-22 15:55 |
|---|---|
| Airport | Vienna International Airport (LOWW) |
Arrival
| Time | 2026-04-22 17:46 |
|---|---|
| Airport | Malta International Airport (LMML) |
| Time | Latitude | Longitude | Altitude | Speed | Heading |
|---|---|---|---|---|---|
| 2026-04-22 14:57 | 48.12020 | 16.55603 | 620 ft | 0 kts | 116° |
| 2026-04-22 15:44 | 48.12028 | 16.55580 | 622 ft | 4 kts | 121° |
| 2026-04-22 15:45 | 48.12044 | 16.55549 | 623 ft | 4 kts | 150° |
| 2026-04-22 15:45 | 48.12062 | 16.55543 | 620 ft | 1 kts | 205° |
| 2026-04-22 15:48 | 48.12059 | 16.55541 | 620 ft | 1 kts | 205° |
| 2026-04-22 15:49 | 48.12054 | 16.55538 | 621 ft | 2 kts | 205° |
| 2026-04-22 15:49 | 48.12014 | 16.55509 | 617 ft | 10 kts | 206° |
| 2026-04-22 15:49 | 48.11928 | 16.55448 | 618 ft | 16 kts | 204° |
| 2026-04-22 15:49 | 48.11827 | 16.55430 | 618 ft | 14 kts | 167° |
| 2026-04-22 15:50 | 48.11776 | 16.55537 | 609 ft | 12 kts | 115° |
| 2026-04-22 15:50 | 48.11727 | 16.55686 | 615 ft | 20 kts | 116° |
| 2026-04-22 15:50 | 48.11667 | 16.55869 | 622 ft | 19 kts | 116° |
| 2026-04-22 15:50 | 48.11618 | 16.56020 | 619 ft | 15 kts | 116° |
| 2026-04-22 15:51 | 48.11563 | 16.56189 | 617 ft | 20 kts | 116° |
| 2026-04-22 15:51 | 48.11504 | 16.56368 | 615 ft | 18 kts | 116° |
| 2026-04-22 15:51 | 48.11452 | 16.56529 | 623 ft | 17 kts | 116° |
| 2026-04-22 15:51 | 48.11404 | 16.56676 | 612 ft | 15 kts | 116° |
| 2026-04-22 15:52 | 48.11350 | 16.56844 | 620 ft | 21 kts | 115° |
| 2026-04-22 15:52 | 48.11285 | 16.57043 | 610 ft | 21 kts | 117° |
| 2026-04-22 15:52 | 48.11220 | 16.57241 | 613 ft | 21 kts | 115° |
| 2026-04-22 15:52 | 48.11156 | 16.57437 | 610 ft | 17 kts | 116° |
| 2026-04-22 15:53 | 48.11109 | 16.57582 | 616 ft | 15 kts | 116° |
| 2026-04-22 15:53 | 48.11038 | 16.57642 | 617 ft | 13 kts | 198° |
| 2026-04-22 15:53 | 48.10964 | 16.57587 | 615 ft | 11 kts | 207° |
| 2026-04-22 15:53 | 48.10923 | 16.57509 | 615 ft | 9 kts | 275° |
| 2026-04-22 15:54 | 48.10951 | 16.57423 | 619 ft | 10 kts | 297° |
| 2026-04-22 15:54 | 48.10992 | 16.57299 | 614 ft | 27 kts | 297° |
| 2026-04-22 15:54 | 48.11189 | 16.56695 | 619 ft | 98 kts | 296° |
| 2026-04-22 15:54 | 48.11577 | 16.55508 | 620 ft | 153 kts | 296° |
| 2026-04-22 15:55 | 48.12096 | 16.53981 | 999 ft | 165 kts | 297° |
| 2026-04-22 15:55 | 48.12177 | 16.52262 | 1705 ft | 178 kts | 251° |
| 2026-04-22 15:55 | 48.11350 | 16.50874 | 2389 ft | 189 kts | 216° |
| 2026-04-22 15:55 | 48.10179 | 16.49752 | 2797 ft | 209 kts | 216° |
| 2026-04-22 15:56 | 48.08890 | 16.48531 | 3199 ft | 231 kts | 215° |
| 2026-04-22 15:56 | 48.07339 | 16.47532 | 3626 ft | 258 kts | 191° |
| 2026-04-22 15:56 | 48.05473 | 16.47582 | 4212 ft | 277 kts | 173° |
| 2026-04-22 15:56 | 48.04195 | 16.47820 | 4802 ft | 281 kts | 173° |
| 2026-04-22 15:57 | 48.01591 | 16.48325 | 6034 ft | 286 kts | 172° |
| 2026-04-22 15:57 | 47.99604 | 16.48723 | 6953 ft | 290 kts | 172° |
| 2026-04-22 15:57 | 47.97593 | 16.49128 | 7851 ft | 293 kts | 172° |
| 2026-04-22 15:57 | 47.95590 | 16.49531 | 8721 ft | 297 kts | 172° |
| 2026-04-22 15:58 | 47.93534 | 16.49946 | 9615 ft | 300 kts | 171° |
| 2026-04-22 15:58 | 47.91445 | 16.50365 | 10342 ft | 310 kts | 171° |
| 2026-04-22 15:58 | 47.89227 | 16.50808 | 10614 ft | 333 kts | 171° |
| 2026-04-22 15:58 | 47.86864 | 16.51280 | 11048 ft | 349 kts | 171° |
| 2026-04-22 15:59 | 47.84437 | 16.51762 | 11743 ft | 355 kts | 171° |
| 2026-04-22 15:59 | 47.81970 | 16.52251 | 12511 ft | 359 kts | 171° |
| 2026-04-22 15:59 | 47.79476 | 16.52748 | 13273 ft | 363 kts | 171° |
| 2026-04-22 15:59 | 47.76952 | 16.53249 | 14023 ft | 368 kts | 170° |
| 2026-04-22 16:00 | 47.75273 | 16.53582 | 14443 ft | 371 kts | 171° |
| 2026-04-22 16:00 | 47.71864 | 16.54255 | 15314 ft | 375 kts | 171° |
| 2026-04-22 16:00 | 47.69263 | 16.54765 | 15979 ft | 379 kts | 170° |
| 2026-04-22 16:00 | 47.66636 | 16.55283 | 16648 ft | 382 kts | 170° |
| 2026-04-22 16:01 | 47.63988 | 16.55808 | 17315 ft | 385 kts | 170° |
| 2026-04-22 16:01 | 47.61357 | 16.56329 | 17962 ft | 388 kts | 170° |
| 2026-04-22 16:01 | 47.58631 | 16.56867 | 18595 ft | 392 kts | 170° |
| 2026-04-22 16:01 | 47.55913 | 16.57400 | 19152 ft | 396 kts | 170° |
| 2026-04-22 16:02 | 47.53174 | 16.57934 | 19722 ft | 399 kts | 170° |
| 2026-04-22 16:02 | 47.50449 | 16.58463 | 20270 ft | 402 kts | 170° |
| 2026-04-22 16:02 | 47.47671 | 16.59005 | 20838 ft | 401 kts | 170° |
| 2026-04-22 16:02 | 47.44901 | 16.59529 | 21450 ft | 403 kts | 171° |
| 2026-04-22 16:03 | 47.42101 | 16.59991 | 22082 ft | 406 kts | 172° |
| 2026-04-22 16:03 | 47.39278 | 16.60354 | 22726 ft | 408 kts | 174° |
| 2026-04-22 16:03 | 47.36440 | 16.60589 | 23300 ft | 412 kts | 175° |
| 2026-04-22 16:03 | 47.33550 | 16.60736 | 23714 ft | 418 kts | 176° |
| 2026-04-22 16:04 | 47.30710 | 16.60802 | 24057 ft | 382 kts | 178° |
| 2026-04-22 16:04 | 47.29017 | 16.60788 | 24256 ft | 358 kts | 175° |
| 2026-04-22 16:04 | 47.25741 | 16.60834 | 24790 ft | 359 kts | 179° |
| 2026-04-22 16:04 | 47.23252 | 16.60650 | 25320 ft | 351 kts | 183° |
| 2026-04-22 16:05 | 47.21642 | 16.60431 | 25698 ft | 353 kts | 184° |
| 2026-04-22 16:05 | 47.18308 | 16.60088 | 26415 ft | 368 kts | 181° |
| 2026-04-22 16:05 | 47.16587 | 16.59981 | 26551 ft | 381 kts | 181° |
| 2026-04-22 16:05 | 47.13896 | 16.59956 | 27003 ft | 391 kts | 176° |
| 2026-04-22 16:06 | 47.11136 | 16.60165 | 27392 ft | 404 kts | 177° |
| 2026-04-22 16:06 | 47.07347 | 16.60038 | 28068 ft | 415 kts | 182° |
| 2026-04-22 16:06 | 47.04453 | 16.59780 | 28798 ft | 417 kts | 184° |
| 2026-04-22 16:06 | 47.01548 | 16.59304 | 29305 ft | 425 kts | 188° |
| 2026-04-22 16:07 | 46.98588 | 16.58609 | 29628 ft | 436 kts | 189° |
| 2026-04-22 16:07 | 46.95577 | 16.57835 | 30004 ft | 443 kts | 190° |
| 2026-04-22 16:07 | 46.93549 | 16.57308 | 30271 ft | 448 kts | 190° |
| 2026-04-22 16:07 | 46.90465 | 16.56524 | 30640 ft | 453 kts | 190° |
| 2026-04-22 16:08 | 46.87345 | 16.55767 | 31038 ft | 457 kts | 189° |
| 2026-04-22 16:08 | 46.84168 | 16.55081 | 31240 ft | 466 kts | 187° |
| 2026-04-22 16:08 | 46.79865 | 16.54385 | 31555 ft | 473 kts | 186° |
| 2026-04-22 16:08 | 46.77643 | 16.54072 | 31792 ft | 475 kts | 186° |
| 2026-04-22 16:09 | 46.74356 | 16.53604 | 32250 ft | 475 kts | 186° |
| 2026-04-22 16:09 | 46.71114 | 16.53102 | 32698 ft | 472 kts | 187° |
| 2026-04-22 16:09 | 46.67907 | 16.52560 | 32834 ft | 456 kts | 187° |
| 2026-04-22 16:09 | 46.64752 | 16.51990 | 32964 ft | 462 kts | 188° |
| 2026-04-22 16:10 | 46.61533 | 16.51387 | 33134 ft | 471 kts | 188° |
| 2026-04-22 16:10 | 46.58268 | 16.50772 | 33498 ft | 474 kts | 188° |
| 2026-04-22 16:10 | 46.54991 | 16.50160 | 33937 ft | 475 kts | 188° |
| 2026-04-22 16:10 | 46.51749 | 16.49570 | 34373 ft | 475 kts | 188° |
| 2026-04-22 16:11 | 46.48432 | 16.48975 | 34793 ft | 475 kts | 188° |
| 2026-04-22 16:11 | 46.45153 | 16.48387 | 35092 ft | 476 kts | 188° |
| 2026-04-22 16:11 | 46.38654 | 16.47227 | 35191 ft | 471 kts | 188° |
| 2026-04-22 16:12 | 46.32159 | 16.46076 | 35187 ft | 469 kts | 188° |
| 2026-04-22 16:12 | 46.25688 | 16.44922 | 35188 ft | 468 kts | 188° |
| 2026-04-22 16:13 | 46.19225 | 16.43786 | 35188 ft | 468 kts | 188° |
| 2026-04-22 16:13 | 46.12799 | 16.42662 | 35188 ft | 468 kts | 189° |
| 2026-04-22 16:14 | 46.06343 | 16.41522 | 35192 ft | 468 kts | 189° |
| 2026-04-22 16:14 | 45.99876 | 16.40379 | 35189 ft | 468 kts | 189° |
| 2026-04-22 16:15 | 45.93412 | 16.39243 | 35184 ft | 468 kts | 189° |
| 2026-04-22 16:15 | 45.86940 | 16.38102 | 35183 ft | 469 kts | 189° |
| 2026-04-22 16:16 | 45.80503 | 16.36975 | 35185 ft | 470 kts | 189° |
| 2026-04-22 16:16 | 45.74014 | 16.35846 | 35187 ft | 470 kts | 189° |
| 2026-04-22 16:17 | 45.67515 | 16.34717 | 35191 ft | 470 kts | 190° |
| 2026-04-22 16:17 | 45.61065 | 16.33599 | 35198 ft | 470 kts | 190° |
| 2026-04-22 16:18 | 45.54569 | 16.32474 | 35202 ft | 470 kts | 190° |
| 2026-04-22 16:18 | 45.48076 | 16.31356 | 35204 ft | 470 kts | 191° |
| 2026-04-22 16:19 | 45.41580 | 16.30235 | 35207 ft | 470 kts | 191° |
| 2026-04-22 16:19 | 45.35134 | 16.29123 | 35207 ft | 470 kts | 191° |
| 2026-04-22 16:20 | 45.28649 | 16.28012 | 35209 ft | 469 kts | 191° |
| 2026-04-22 16:20 | 45.22166 | 16.26904 | 35207 ft | 469 kts | 191° |
| 2026-04-22 16:21 | 45.15694 | 16.25793 | 35206 ft | 469 kts | 191° |
| 2026-04-22 16:21 | 45.09220 | 16.24681 | 35207 ft | 469 kts | 192° |
| 2026-04-22 16:22 | 44.99604 | 16.23052 | 35205 ft | 468 kts | 192° |
| 2026-04-22 16:23 | 44.89858 | 16.21415 | 35199 ft | 468 kts | 192° |
| 2026-04-22 16:23 | 44.83389 | 16.20316 | 35193 ft | 468 kts | 192° |
| 2026-04-22 16:24 | 44.73750 | 16.18690 | 35189 ft | 467 kts | 192° |
| 2026-04-22 16:25 | 44.67305 | 16.17606 | 35187 ft | 466 kts | 192° |
| 2026-04-22 16:25 | 44.57673 | 16.15989 | 35164 ft | 466 kts | 193° |
| 2026-04-22 16:26 | 44.51239 | 16.14920 | 35165 ft | 465 kts | 193° |
| 2026-04-22 16:26 | 44.44820 | 16.13852 | 35159 ft | 465 kts | 193° |
| 2026-04-22 16:27 | 44.38394 | 16.12778 | 35148 ft | 464 kts | 193° |
| 2026-04-22 16:27 | 44.31978 | 16.11716 | 35134 ft | 464 kts | 193° |
| 2026-04-22 16:28 | 44.25634 | 16.10670 | 35122 ft | 464 kts | 193° |
| 2026-04-22 16:28 | 44.19203 | 16.09595 | 35109 ft | 463 kts | 193° |
| 2026-04-22 16:29 | 44.12807 | 16.08544 | 35094 ft | 463 kts | 193° |
| 2026-04-22 16:29 | 44.06404 | 16.07490 | 35085 ft | 463 kts | 193° |
| 2026-04-22 16:30 | 44.00045 | 16.06447 | 35070 ft | 463 kts | 194° |
| 2026-04-22 16:30 | 43.93694 | 16.05409 | 35067 ft | 463 kts | 194° |
| 2026-04-22 16:31 | 43.87269 | 16.04387 | 35058 ft | 464 kts | 191° |
| 2026-04-22 16:31 | 43.80808 | 16.04288 | 35053 ft | 469 kts | 186° |
| 2026-04-22 16:32 | 43.74260 | 16.04324 | 35046 ft | 469 kts | 186° |
| 2026-04-22 16:32 | 43.67750 | 16.04367 | 35039 ft | 468 kts | 186° |
| 2026-04-22 16:33 | 43.61269 | 16.04396 | 35031 ft | 467 kts | 187° |
| 2026-04-22 16:33 | 43.54757 | 16.04414 | 35030 ft | 467 kts | 187° |
| 2026-04-22 16:34 | 43.48281 | 16.04445 | 35032 ft | 467 kts | 187° |
| 2026-04-22 16:34 | 43.41810 | 16.04485 | 35026 ft | 467 kts | 187° |
| 2026-04-22 16:35 | 43.35299 | 16.04524 | 35030 ft | 466 kts | 187° |
| 2026-04-22 16:35 | 43.28864 | 16.04546 | 35026 ft | 466 kts | 187° |
| 2026-04-22 16:36 | 43.22389 | 16.04568 | 35026 ft | 466 kts | 187° |
| 2026-04-22 16:36 | 43.15897 | 16.04598 | 35024 ft | 466 kts | 187° |
| 2026-04-22 16:37 | 43.09414 | 16.04627 | 35025 ft | 465 kts | 187° |
| 2026-04-22 16:37 | 43.02938 | 16.04659 | 35024 ft | 465 kts | 187° |
| 2026-04-22 16:38 | 42.96489 | 16.04689 | 35024 ft | 465 kts | 187° |
| 2026-04-22 16:38 | 42.90035 | 16.04717 | 35021 ft | 465 kts | 187° |
| 2026-04-22 16:39 | 42.83568 | 16.04742 | 35024 ft | 465 kts | 187° |
| 2026-04-22 16:39 | 42.77093 | 16.04770 | 35020 ft | 465 kts | 187° |
| 2026-04-22 16:40 | 42.70657 | 16.04801 | 35028 ft | 465 kts | 187° |
| 2026-04-22 16:41 | 42.60968 | 16.04853 | 35022 ft | 465 kts | 187° |
| 2026-04-22 16:41 | 42.54505 | 16.04868 | 35027 ft | 464 kts | 188° |
| 2026-04-22 16:42 | 42.48251 | 16.03673 | 35027 ft | 446 kts | 205° |
| 2026-04-22 16:42 | 42.42516 | 16.00989 | 35034 ft | 443 kts | 207° |
| 2026-04-22 16:43 | 42.36649 | 15.98238 | 35032 ft | 443 kts | 207° |
| 2026-04-22 16:43 | 42.30838 | 15.95516 | 35032 ft | 443 kts | 207° |
| 2026-04-22 16:44 | 42.25001 | 15.92796 | 35043 ft | 443 kts | 207° |
| 2026-04-22 16:44 | 42.19197 | 15.90101 | 35047 ft | 443 kts | 207° |
| 2026-04-22 16:45 | 42.13416 | 15.87413 | 35049 ft | 443 kts | 207° |
| 2026-04-22 16:45 | 42.07561 | 15.84688 | 35050 ft | 443 kts | 207° |
| 2026-04-22 16:46 | 42.01735 | 15.81989 | 35054 ft | 443 kts | 207° |
| 2026-04-22 16:46 | 41.95906 | 15.79291 | 35054 ft | 443 kts | 207° |
| 2026-04-22 16:47 | 41.90077 | 15.76692 | 35055 ft | 446 kts | 205° |
| 2026-04-22 16:47 | 41.84089 | 15.74407 | 35056 ft | 448 kts | 203° |
| 2026-04-22 16:48 | 41.78071 | 15.72210 | 35053 ft | 448 kts | 203° |
| 2026-04-22 16:48 | 41.72078 | 15.69958 | 35053 ft | 447 kts | 204° |
| 2026-04-22 16:49 | 41.66093 | 15.67655 | 35052 ft | 447 kts | 204° |
| 2026-04-22 16:49 | 41.60150 | 15.65370 | 35056 ft | 447 kts | 204° |
| 2026-04-22 16:50 | 41.54168 | 15.63087 | 35054 ft | 447 kts | 204° |
| 2026-04-22 16:50 | 41.48188 | 15.60824 | 35084 ft | 447 kts | 204° |
| 2026-04-22 16:51 | 41.42209 | 15.58562 | 35085 ft | 447 kts | 204° |
| 2026-04-22 16:51 | 41.36270 | 15.56311 | 35082 ft | 446 kts | 204° |
| 2026-04-22 16:52 | 41.30302 | 15.54044 | 35077 ft | 446 kts | 204° |
| 2026-04-22 16:52 | 41.24327 | 15.51777 | 35078 ft | 447 kts | 204° |
| 2026-04-22 16:53 | 41.18345 | 15.49527 | 35082 ft | 447 kts | 203° |
| 2026-04-22 16:53 | 41.12403 | 15.47303 | 35085 ft | 447 kts | 204° |
| 2026-04-22 16:54 | 41.06420 | 15.45064 | 35086 ft | 446 kts | 204° |
| 2026-04-22 16:54 | 41.00445 | 15.42829 | 35088 ft | 446 kts | 204° |
| 2026-04-22 16:55 | 40.94478 | 15.40594 | 35082 ft | 445 kts | 204° |
| 2026-04-22 16:55 | 40.88557 | 15.38374 | 35080 ft | 445 kts | 204° |
| 2026-04-22 16:56 | 40.82596 | 15.36164 | 35080 ft | 445 kts | 203° |
| 2026-04-22 16:56 | 40.76636 | 15.33956 | 35073 ft | 445 kts | 204° |
| 2026-04-22 16:57 | 40.70683 | 15.31746 | 35056 ft | 444 kts | 204° |
| 2026-04-22 16:57 | 40.64784 | 15.29559 | 35043 ft | 444 kts | 204° |
| 2026-04-22 16:58 | 40.59851 | 15.27730 | 35030 ft | 444 kts | 204° |
| 2026-04-22 16:58 | 40.52942 | 15.25173 | 35018 ft | 444 kts | 203° |
| 2026-04-22 16:59 | 40.47003 | 15.22995 | 35012 ft | 444 kts | 203° |
| 2026-04-22 16:59 | 40.41046 | 15.20851 | 35006 ft | 445 kts | 202° |
| 2026-04-22 17:00 | 40.35005 | 15.19147 | 34996 ft | 449 kts | 198° |
| 2026-04-22 17:00 | 40.25775 | 15.16995 | 34989 ft | 449 kts | 198° |
| 2026-04-22 17:01 | 40.19643 | 15.15481 | 34974 ft | 448 kts | 198° |
| 2026-04-22 17:01 | 40.13556 | 15.13917 | 34966 ft | 449 kts | 199° |
| 2026-04-22 17:02 | 40.07430 | 15.12335 | 34967 ft | 449 kts | 198° |
| 2026-04-22 17:02 | 40.01284 | 15.10768 | 34963 ft | 450 kts | 198° |
| 2026-04-22 17:03 | 39.95135 | 15.09214 | 34967 ft | 450 kts | 198° |
| 2026-04-22 17:03 | 39.89019 | 15.07675 | 34960 ft | 450 kts | 198° |
| 2026-04-22 17:04 | 39.82885 | 15.06129 | 34961 ft | 451 kts | 198° |
| 2026-04-22 17:04 | 39.76714 | 15.04571 | 34969 ft | 451 kts | 198° |
| 2026-04-22 17:05 | 39.70545 | 15.03021 | 34966 ft | 451 kts | 198° |
| 2026-04-22 17:05 | 39.64420 | 15.01474 | 34970 ft | 451 kts | 198° |
| 2026-04-22 17:06 | 39.58268 | 14.99938 | 34968 ft | 452 kts | 198° |
| 2026-04-22 17:06 | 39.52106 | 14.98397 | 34971 ft | 451 kts | 198° |
| 2026-04-22 17:07 | 39.45926 | 14.96857 | 34970 ft | 451 kts | 198° |
| 2026-04-22 17:07 | 39.39745 | 14.95318 | 34972 ft | 452 kts | 198° |
| 2026-04-22 17:08 | 39.33614 | 14.93793 | 34968 ft | 452 kts | 198° |
| 2026-04-22 17:08 | 39.27450 | 14.92268 | 34971 ft | 451 kts | 198° |
| 2026-04-22 17:09 | 39.21276 | 14.90742 | 34967 ft | 451 kts | 198° |
| 2026-04-22 17:09 | 39.15116 | 14.89210 | 34972 ft | 451 kts | 198° |
| 2026-04-22 17:10 | 39.08957 | 14.87683 | 34972 ft | 451 kts | 198° |
| 2026-04-22 17:10 | 39.02837 | 14.86178 | 34975 ft | 451 kts | 198° |
| 2026-04-22 17:11 | 38.96687 | 14.84673 | 34975 ft | 450 kts | 198° |
| 2026-04-22 17:11 | 38.90522 | 14.83157 | 34977 ft | 450 kts | 198° |
| 2026-04-22 17:12 | 38.84414 | 14.81661 | 34973 ft | 450 kts | 197° |
| 2026-04-22 17:12 | 38.78247 | 14.80149 | 34981 ft | 451 kts | 197° |
| 2026-04-22 17:13 | 38.72089 | 14.78645 | 34981 ft | 450 kts | 197° |
| 2026-04-22 17:13 | 38.65935 | 14.77139 | 34981 ft | 450 kts | 197° |
| 2026-04-22 17:14 | 38.59827 | 14.75652 | 34982 ft | 450 kts | 197° |
| 2026-04-22 17:14 | 38.53682 | 14.74163 | 34983 ft | 450 kts | 197° |
| 2026-04-22 17:15 | 38.47524 | 14.72670 | 34985 ft | 450 kts | 197° |
| 2026-04-22 17:15 | 38.41378 | 14.71188 | 34986 ft | 450 kts | 197° |
| 2026-04-22 17:16 | 38.35227 | 14.69703 | 34989 ft | 449 kts | 197° |
| 2026-04-22 17:16 | 38.29132 | 14.68225 | 34992 ft | 449 kts | 197° |
| 2026-04-22 17:17 | 38.22990 | 14.66735 | 34993 ft | 449 kts | 197° |
| 2026-04-22 17:17 | 38.16849 | 14.65263 | 34995 ft | 449 kts | 197° |
| 2026-04-22 17:18 | 38.10722 | 14.63798 | 34991 ft | 448 kts | 197° |
| 2026-04-22 17:18 | 38.04632 | 14.62336 | 34989 ft | 448 kts | 197° |
| 2026-04-22 17:19 | 37.92391 | 14.59403 | 34973 ft | 447 kts | 197° |
| 2026-04-22 17:20 | 37.80200 | 14.56502 | 34978 ft | 447 kts | 197° |
| 2026-04-22 17:21 | 37.71028 | 14.54324 | 34988 ft | 447 kts | 197° |
| 2026-04-22 17:22 | 37.61857 | 14.52151 | 34972 ft | 447 kts | 197° |
| 2026-04-22 17:23 | 37.52728 | 14.49987 | 34949 ft | 447 kts | 197° |
| 2026-04-22 17:23 | 37.43563 | 14.47829 | 34957 ft | 447 kts | 197° |
| 2026-04-22 17:24 | 37.37459 | 14.46389 | 34951 ft | 447 kts | 197° |
| 2026-04-22 17:24 | 37.31339 | 14.44954 | 34818 ft | 448 kts | 197° |
| 2026-04-22 17:25 | 37.28307 | 14.44246 | 34564 ft | 449 kts | 197° |
| 2026-04-22 17:25 | 37.25236 | 14.43525 | 34326 ft | 450 kts | 197° |
| 2026-04-22 17:25 | 37.22157 | 14.42805 | 34086 ft | 451 kts | 196° |
| 2026-04-22 17:25 | 37.19024 | 14.42346 | 33821 ft | 456 kts | 190° |
| 2026-04-22 17:26 | 37.15858 | 14.42045 | 33549 ft | 457 kts | 190° |
| 2026-04-22 17:26 | 37.12693 | 14.41749 | 33276 ft | 458 kts | 190° |
| 2026-04-22 17:26 | 37.09549 | 14.41457 | 33004 ft | 459 kts | 190° |
| 2026-04-22 17:26 | 37.06368 | 14.41162 | 32730 ft | 458 kts | 190° |
| 2026-04-22 17:27 | 37.03158 | 14.40863 | 32469 ft | 457 kts | 190° |
| 2026-04-22 17:27 | 37.00024 | 14.40571 | 32205 ft | 455 kts | 190° |
| 2026-04-22 17:27 | 36.96877 | 14.40278 | 31679 ft | 451 kts | 189° |
| 2026-04-22 17:27 | 36.93762 | 14.39986 | 30953 ft | 447 kts | 189° |
| 2026-04-22 17:28 | 36.90672 | 14.39693 | 30258 ft | 443 kts | 189° |
| 2026-04-22 17:28 | 36.87614 | 14.39404 | 29505 ft | 439 kts | 189° |
| 2026-04-22 17:28 | 36.84621 | 14.38904 | 28848 ft | 429 kts | 195° |
| 2026-04-22 17:28 | 36.81705 | 14.38232 | 28198 ft | 423 kts | 195° |
| 2026-04-22 17:29 | 36.78868 | 14.37580 | 27564 ft | 418 kts | 195° |
| 2026-04-22 17:29 | 36.76020 | 14.36930 | 26941 ft | 414 kts | 195° |
| 2026-04-22 17:29 | 36.73201 | 14.36287 | 26336 ft | 409 kts | 195° |
| 2026-04-22 17:29 | 36.70416 | 14.35653 | 25754 ft | 405 kts | 195° |
| 2026-04-22 17:30 | 36.67665 | 14.35026 | 25178 ft | 402 kts | 195° |
| 2026-04-22 17:30 | 36.64929 | 14.34401 | 24625 ft | 398 kts | 195° |
| 2026-04-22 17:30 | 36.62202 | 14.33776 | 24073 ft | 395 kts | 195° |
| 2026-04-22 17:30 | 36.59508 | 14.33159 | 23526 ft | 392 kts | 195° |
| 2026-04-22 17:31 | 36.56834 | 14.32548 | 22926 ft | 389 kts | 195° |
| 2026-04-22 17:31 | 36.54227 | 14.31958 | 22407 ft | 384 kts | 195° |
| 2026-04-22 17:31 | 36.51613 | 14.31369 | 21867 ft | 380 kts | 195° |
| 2026-04-22 17:31 | 36.49030 | 14.30787 | 21326 ft | 377 kts | 195° |
| 2026-04-22 17:32 | 36.46450 | 14.30203 | 20769 ft | 374 kts | 195° |
| 2026-04-22 17:32 | 36.43896 | 14.29622 | 20219 ft | 372 kts | 195° |
| 2026-04-22 17:32 | 36.41369 | 14.29046 | 19663 ft | 370 kts | 195° |
| 2026-04-22 17:32 | 36.38831 | 14.28465 | 19104 ft | 369 kts | 195° |
| 2026-04-22 17:33 | 36.37155 | 14.28081 | 18733 ft | 369 kts | 195° |
| 2026-04-22 17:33 | 36.33813 | 14.27316 | 17954 ft | 368 kts | 195° |
| 2026-04-22 17:33 | 36.31306 | 14.26744 | 17384 ft | 366 kts | 195° |
| 2026-04-22 17:33 | 36.28811 | 14.26179 | 16838 ft | 363 kts | 194° |
| 2026-04-22 17:34 | 36.26338 | 14.25620 | 16299 ft | 360 kts | 194° |
| 2026-04-22 17:34 | 36.23877 | 14.25067 | 15764 ft | 358 kts | 194° |
| 2026-04-22 17:34 | 36.21429 | 14.24517 | 15234 ft | 357 kts | 194° |
| 2026-04-22 17:34 | 36.18994 | 14.23970 | 14706 ft | 355 kts | 194° |
| 2026-04-22 17:35 | 36.16574 | 14.23424 | 14174 ft | 353 kts | 194° |
| 2026-04-22 17:35 | 36.14190 | 14.22884 | 13620 ft | 352 kts | 194° |
| 2026-04-22 17:35 | 36.11790 | 14.22340 | 13070 ft | 349 kts | 194° |
| 2026-04-22 17:35 | 36.09413 | 14.21802 | 12515 ft | 345 kts | 194° |
| 2026-04-22 17:36 | 36.07064 | 14.21273 | 11966 ft | 342 kts | 194° |
| 2026-04-22 17:36 | 36.04728 | 14.20750 | 11417 ft | 339 kts | 194° |
| 2026-04-22 17:36 | 36.02426 | 14.20203 | 10868 ft | 335 kts | 196° |
| 2026-04-22 17:36 | 36.00181 | 14.19573 | 10506 ft | 319 kts | 197° |
| 2026-04-22 17:37 | 35.98126 | 14.18953 | 10370 ft | 290 kts | 198° |
| 2026-04-22 17:37 | 35.96245 | 14.18369 | 10232 ft | 277 kts | 199° |
| 2026-04-22 17:37 | 35.94401 | 14.17794 | 9991 ft | 271 kts | 199° |
| 2026-04-22 17:37 | 35.92583 | 14.17230 | 9657 ft | 269 kts | 198° |
| 2026-04-22 17:38 | 35.90761 | 14.16670 | 9052 ft | 274 kts | 198° |
| 2026-04-22 17:38 | 35.88931 | 14.16115 | 8507 ft | 266 kts | 198° |
| 2026-04-22 17:38 | 35.87145 | 14.15578 | 7880 ft | 262 kts | 197° |
| 2026-04-22 17:38 | 35.85391 | 14.15066 | 7648 ft | 261 kts | 194° |
| 2026-04-22 17:39 | 35.83603 | 14.14936 | 7551 ft | 268 kts | 178° |
| 2026-04-22 17:39 | 35.81743 | 14.15408 | 7281 ft | 273 kts | 163° |
| 2026-04-22 17:39 | 35.78535 | 14.17855 | 5911 ft | 270 kts | 145° |
| 2026-04-22 17:40 | 35.77029 | 14.19196 | 5271 ft | 264 kts | 145° |
| 2026-04-22 17:40 | 35.75566 | 14.20483 | 4912 ft | 248 kts | 145° |
| 2026-04-22 17:40 | 35.74261 | 14.21695 | 4854 ft | 228 kts | 135° |
| 2026-04-22 17:40 | 35.73396 | 14.23308 | 4793 ft | 227 kts | 109° |
| 2026-04-22 17:41 | 35.73192 | 14.25213 | 4583 ft | 226 kts | 83° |
| 2026-04-22 17:41 | 35.73684 | 14.27028 | 4007 ft | 234 kts | 56° |
| 2026-04-22 17:41 | 35.74631 | 14.28642 | 3436 ft | 234 kts | 52° |
| 2026-04-22 17:41 | 35.75583 | 14.30251 | 3029 ft | 226 kts | 52° |
| 2026-04-22 17:42 | 35.76464 | 14.31758 | 2981 ft | 207 kts | 53° |
| 2026-04-22 17:42 | 35.77292 | 14.33178 | 2822 ft | 204 kts | 53° |
| 2026-04-22 17:42 | 35.78117 | 14.34591 | 2564 ft | 200 kts | 53° |
| 2026-04-22 17:42 | 35.78896 | 14.35933 | 2278 ft | 188 kts | 54° |
| 2026-04-22 17:43 | 35.79640 | 14.37216 | 2026 ft | 179 kts | 54° |
| 2026-04-22 17:43 | 35.80330 | 14.38403 | 1802 ft | 166 kts | 54° |
| 2026-04-22 17:43 | 35.80971 | 14.39507 | 1585 ft | 151 kts | 55° |
| 2026-04-22 17:43 | 35.81558 | 14.40518 | 1393 ft | 139 kts | 55° |
| 2026-04-22 17:44 | 35.82103 | 14.41452 | 1213 ft | 130 kts | 56° |
| 2026-04-22 17:44 | 35.82613 | 14.42327 | 1059 ft | 123 kts | 56° |
| 2026-04-22 17:44 | 35.83106 | 14.43174 | 894 ft | 122 kts | 56° |
| 2026-04-22 17:44 | 35.83582 | 14.44011 | 758 ft | 120 kts | 57° |
| 2026-04-22 17:45 | 35.84056 | 14.44855 | 585 ft | 119 kts | 53° |
| 2026-04-22 17:45 | 35.84539 | 14.45673 | 427 ft | 118 kts | 56° |
| 2026-04-22 17:45 | 35.85013 | 14.46483 | 313 ft | 110 kts | 55° |
| 2026-04-22 17:45 | 35.85414 | 14.47166 | 280 ft | 80 kts | 54° |
| 2026-04-22 17:46 | 35.85650 | 14.47571 | 272 ft | 45 kts | 54° |
| 2026-04-22 17:46 | 35.85819 | 14.47861 | 272 ft | 39 kts | 54° |
| 2026-04-22 17:46 | 35.85950 | 14.48087 | 272 ft | 22 kts | 54° |
| 2026-04-22 17:46 | 35.85948 | 14.48143 | 272 ft | 6 kts | 144° |
| 2026-04-22 17:47 | 35.85877 | 14.48160 | 272 ft | 13 kts | 172° |
| 2026-04-22 17:47 | 35.85790 | 14.48177 | 272 ft | 13 kts | 170° |
| 2026-04-22 17:47 | 35.85699 | 14.48195 | 272 ft | 16 kts | 171° |
| 2026-04-22 17:47 | 35.85586 | 14.48224 | 272 ft | 12 kts | 152° |
| 2026-04-22 17:48 | 35.85546 | 14.48274 | 272 ft | 13 kts | 133° |
| 2026-04-22 17:48 | 35.85441 | 14.48405 | 274 ft | 19 kts | 134° |
| 2026-04-22 17:48 | 35.85356 | 14.48510 | 274 ft | 18 kts | 135° |
| 2026-04-22 17:48 | 35.85316 | 14.48561 | 272 ft | 0 kts | 134° |
| 2026-04-22 17:49 | 35.85314 | 14.48563 | 272 ft | 0 kts | 134° |
| 2026-04-22 17:49 | 35.85313 | 14.48564 | 272 ft | 0 kts | 134° |
| 2026-04-22 17:50 | 35.85309 | 14.48569 | 272 ft | 1 kts | 134° |
| 2026-04-22 17:50 | 35.85301 | 14.48579 | 272 ft | 2 kts | 134° |
| 2026-04-22 17:50 | 35.85267 | 14.48611 | 272 ft | 8 kts | 152° |
| 2026-04-22 17:50 | 35.85214 | 14.48640 | 271 ft | 9 kts | 155° |
| 2026-04-22 17:51 | 35.85143 | 14.48688 | 268 ft | 14 kts | 144° |
| 2026-04-22 17:51 | 35.85067 | 14.48798 | 262 ft | 21 kts | 125° |
| 2026-04-22 17:51 | 35.84987 | 14.48946 | 259 ft | 22 kts | 122° |
| 2026-04-22 17:51 | 35.84916 | 14.49081 | 259 ft | 17 kts | 134° |
| 2026-04-22 17:52 | 35.84938 | 14.49199 | 259 ft | 14 kts | 70° |
| 2026-04-22 17:52 | 35.84903 | 14.49306 | 259 ft | 11 kts | 134° |
| 2026-04-22 17:52 | 35.84841 | 14.49384 | 259 ft | 12 kts | 134° |
| 2026-04-22 17:52 | 35.84810 | 14.49421 | 259 ft | 4 kts | 136° |
| 2026-04-22 17:53 | 35.84801 | 14.49445 | 259 ft | 2 kts | 81° |
| 2026-04-22 17:53 | 35.84813 | 14.49452 | 259 ft | 4 kts | 21° |
| 2026-04-22 17:53 | 35.84853 | 14.49455 | 259 ft | 2 kts | 359° |
| 2026-04-22 17:53 | 35.84863 | 14.49455 | 259 ft | 0 kts | 359° |